Time;durP1;ratioP1;P1;durP2;ratioP2;P2;SDS_P1;SDS_P2;PMS_P1;PMS_P2;Temp;Humidity;BMP_temperature;BMP_pressure;BME280_temperature;BME280_humidity;BME280_pressure;Samples;Min_cycle;Max_cycle;Signal;HPM_P1;HPM_P2
2023/12/08 00:02:07;;;;;;;17.70;12.35;;;3.20;99.90;;;;;;5047935;28;20295;-76
2023/12/08 00:04:55;;;;;;;15.75;11.32;;;3.10;99.90;;;;;;5046164;28;20224;-76
2023/12/08 00:07:41;;;;;;;19.27;12.55;;;3.10;99.90;;;;;;5050294;28;20724;-77
2023/12/08 00:10:26;;;;;;;18.08;12.85;;;3.10;99.90;;;;;;5040419;28;20333;-77
2023/12/08 00:13:12;;;;;;;15.73;12.55;;;3.10;99.90;;;;;;5046498;28;20688;-77
2023/12/08 00:15:57;;;;;;;18.35;12.65;;;3.10;99.90;;;;;;5049897;28;20232;-75
2023/12/08 00:18:43;;;;;;;18.45;12.00;;;3.00;99.90;;;;;;5043885;28;20228;-77
2023/12/08 00:21:30;;;;;;;19.27;12.98;;;3.10;99.90;;;;;;5041632;28;20212;-77
2023/12/08 00:24:15;;;;;;;15.52;11.50;;;3.10;99.90;;;;;;5047300;28;20310;-77
2023/12/08 00:27:01;;;;;;;16.83;12.15;;;3.10;99.90;;;;;;5040503;28;20614;-77
2023/12/08 00:29:47;;;;;;;16.27;11.45;;;3.10;99.90;;;;;;5031127;28;20229;-76
2023/12/08 00:32:32;;;;;;;14.82;11.63;;;3.10;99.90;;;;;;5041086;28;20248;-77
2023/12/08 00:35:18;;;;;;;15.40;10.90;;;3.10;99.90;;;;;;5045215;28;20580;-76
2023/12/08 00:38:05;;;;;;;16.75;12.73;;;3.00;99.90;;;;;;5034911;28;20221;-77
2023/12/08 00:40:51;;;;;;;14.10;11.20;;;3.10;99.90;;;;;;5033868;28;20276;-77
2023/12/08 00:43:36;;;;;;;14.55;10.90;;;3.00;99.90;;;;;;5039349;28;20209;-76
2023/12/08 00:46:22;;;;;;;15.32;11.57;;;3.00;99.90;;;;;;5046892;28;20300;-76
2023/12/08 00:49:08;;;;;;;12.82;10.40;;;3.00;99.90;;;;;;5047522;28;20240;-77
2023/12/08 00:51:53;;;;;;;16.98;10.98;;;3.00;99.90;;;;;;5040987;28;20229;-76
2023/12/08 00:54:40;;;;;;;14.90;10.57;;;2.90;99.90;;;;;;5038568;28;20292;-77
2023/12/08 00:57:26;;;;;;;15.55;10.05;;;2.90;99.90;;;;;;5034369;28;20311;-76
2023/12/08 01:00:12;;;;;;;13.88;10.20;;;2.90;99.90;;;;;;5032241;28;20213;-77
2023/12/08 01:02:58;;;;;;;12.93;10.07;;;2.90;99.90;;;;;;5048783;28;20583;-74
2023/12/08 01:05:43;;;;;;;12.38;9.38;;;3.00;99.90;;;;;;5038272;28;20248;-77
2023/12/08 01:08:29;;;;;;;14.15;11.00;;;3.00;99.90;;;;;;5041837;28;20204;-76
2023/12/08 01:11:17;;;;;;;14.38;10.82;;;2.90;99.90;;;;;;5049055;28;20251;-77
2023/12/08 01:14:03;;;;;;;13.43;10.27;;;2.90;99.90;;;;;;5042837;28;20629;-77
2023/12/08 01:16:48;;;;;;;14.43;10.73;;;3.00;99.90;;;;;;5030046;28;20225;-77
2023/12/08 01:19:34;;;;;;;14.95;10.25;;;3.00;99.90;;;;;;5035742;28;20239;-76
2023/12/08 01:22:20;;;;;;;12.73;10.48;;;3.00;99.90;;;;;;5041905;28;20213;-76
2023/12/08 01:25:06;;;;;;;13.55;10.23;;;3.00;99.90;;;;;;5046070;28;20205;-75
2023/12/08 01:27:55;;;;;;;13.07;10.20;;;3.00;99.90;;;;;;5042843;28;20327;-77
2023/12/08 01:30:40;;;;;;;12.38;10.00;;;3.10;99.90;;;;;;5049141;28;20209;-77
2023/12/08 01:33:26;;;;;;;10.63;8.95;;;3.00;99.90;;;;;;5048969;28;20687;-75
2023/12/08 01:36:12;;;;;;;11.60;9.35;;;3.10;99.90;;;;;;5047337;28;20711;-75
2023/12/08 01:38:57;;;;;;;15.00;11.68;;;3.00;99.90;;;;;;5046083;28;20228;-77
2023/12/08 01:41:43;;;;;;;11.63;9.13;;;2.90;99.90;;;;;;5046612;28;20569;-76
2023/12/08 01:44:30;;;;;;;13.43;9.95;;;3.00;99.90;;;;;;5042750;28;20290;-77
2023/12/08 01:47:16;;;;;;;13.43;9.82;;;3.00;99.90;;;;;;5031557;28;20221;-77
2023/12/08 01:50:03;;;;;;;13.88;10.13;;;3.10;99.90;;;;;;5027829;28;20289;-75
2023/12/08 01:52:50;;;;;;;12.45;8.82;;;3.00;99.90;;;;;;5028295;28;20252;-76
2023/12/08 01:55:36;;;;;;;9.90;8.18;;;3.10;99.90;;;;;;5035893;28;20205;-75
2023/12/08 01:58:21;;;;;;;12.88;9.77;;;3.10;99.90;;;;;;5044557;28;20307;-76
2023/12/08 02:01:10;;;;;;;12.48;10.07;;;3.20;99.90;;;;;;5048766;28;20224;-77
2023/12/08 02:03:56;;;;;;;13.25;9.57;;;3.20;99.90;;;;;;5049802;28;20320;-77
2023/12/08 02:06:42;;;;;;;16.20;9.98;;;3.20;99.90;;;;;;5048445;28;20586;-77
2023/12/08 02:09:27;;;;;;;11.38;9.38;;;3.20;99.90;;;;;;5039422;28;20201;-77
2023/12/08 02:12:13;;;;;;;11.60;9.13;;;3.30;99.90;;;;;;5035393;28;20333;-76
2023/12/08 02:14:59;;;;;;;14.68;8.82;;;3.30;99.90;;;;;;5044052;28;20228;-76
2023/12/08 02:17:47;;;;;;;13.00;9.63;;;3.30;99.90;;;;;;5043078;28;20237;-75
2023/12/08 02:20:33;;;;;;;13.02;9.77;;;3.30;99.90;;;;;;5042160;28;20279;-76
2023/12/08 02:23:19;;;;;;;17.15;11.52;;;3.30;99.90;;;;;;5029122;28;20204;-76
2023/12/08 02:26:10;;;;;;;12.70;10.15;;;3.30;99.90;;;;;;5028524;28;20707;-75
2023/12/08 02:28:56;;;;;;;12.23;9.30;;;3.30;99.90;;;;;;5036067;28;20413;-76
2023/12/08 02:31:46;;;;;;;12.82;8.43;;;3.30;99.90;;;;;;5044498;28;20692;-77
2023/12/08 02:34:33;;;;;;;14.35;9.52;;;3.30;99.90;;;;;;5037052;28;20214;-76
2023/12/08 02:37:21;;;;;;;12.82;9.18;;;3.30;99.90;;;;;;5030422;28;20230;-77
2023/12/08 02:40:08;;;;;;;11.00;8.75;;;3.30;99.90;;;;;;5028824;28;20276;-77
2023/12/08 02:42:55;;;;;;;11.15;8.93;;;3.30;99.90;;;;;;5034811;28;20457;-75
2023/12/08 02:45:41;;;;;;;13.90;9.25;;;3.30;99.90;;;;;;5039786;28;20325;-76
2023/12/08 02:48:26;;;;;;;14.50;9.80;;;3.30;99.90;;;;;;5048539;28;20208;-77
2023/12/08 02:51:12;;;;;;;16.75;9.40;;;3.20;99.90;;;;;;5048505;28;20205;-77
2023/12/08 02:53:58;;;;;;;12.40;8.93;;;3.20;99.90;;;;;;5038637;28;20559;-77
2023/12/08 02:56:43;;;;;;;11.27;8.45;;;3.20;99.90;;;;;;5034339;28;20225;-75
2023/12/08 02:59:30;;;;;;;13.23;9.40;;;3.20;99.90;;;;;;5036218;28;20228;-77
2023/12/08 03:02:16;;;;;;;11.63;8.30;;;3.20;99.90;;;;;;5039818;28;20197;-77
2023/12/08 03:05:01;;;;;;;13.52;9.90;;;3.30;99.90;;;;;;5029160;28;20260;-77
2023/12/08 03:07:47;;;;;;;13.27;10.32;;;3.20;99.90;;;;;;5032212;28;20452;-77
2023/12/08 03:10:32;;;;;;;11.77;9.50;;;3.10;99.90;;;;;;5033534;28;20522;-77
2023/12/08 03:13:18;;;;;;;12.10;9.15;;;3.10;99.90;;;;;;5040357;28;20217;-76
2023/12/08 03:16:07;;;;;;;13.57;10.82;;;3.10;99.90;;;;;;5031401;28;20400;-74
2023/12/08 03:18:52;;;;;;;13.35;9.75;;;3.10;99.90;;;;;;5024796;28;20362;-75
2023/12/08 03:21:38;;;;;;;14.63;10.05;;;3.10;99.90;;;;;;5036245;28;20209;-77
2023/12/08 03:24:23;;;;;;;13.82;9.63;;;3.00;99.90;;;;;;5030236;28;20328;-77
2023/12/08 03:27:09;;;;;;;12.80;9.68;;;3.00;99.90;;;;;;5030322;28;20593;-77
2023/12/08 03:29:55;;;;;;;16.15;9.50;;;3.00;99.90;;;;;;5025493;28;20209;-75
2023/12/08 03:32:42;;;;;;;14.10;9.95;;;3.00;99.90;;;;;;5028305;28;20608;-76
2023/12/08 03:35:27;;;;;;;11.30;8.85;;;2.90;99.90;;;;;;5041755;28;20205;-76
2023/12/08 03:38:13;;;;;;;13.98;10.20;;;2.90;99.90;;;;;;5028368;28;20234;-75
2023/12/08 03:40:58;;;;;;;12.43;9.70;;;3.00;99.90;;;;;;5034460;28;20720;-76
2023/12/08 03:43:44;;;;;;;10.20;8.40;;;3.00;99.90;;;;;;5039660;28;20269;-75
2023/12/08 03:46:30;;;;;;;12.25;9.25;;;3.10;99.90;;;;;;5034118;28;20277;-76
2023/12/08 03:49:17;;;;;;;11.65;8.85;;;3.10;99.90;;;;;;5017120;28;20330;-76
2023/12/08 03:52:02;;;;;;;10.50;9.40;;;3.10;99.90;;;;;;5022846;28;20281;-75
2023/12/08 03:54:48;;;;;;;11.20;9.18;;;3.00;99.90;;;;;;5021926;28;20205;-75
2023/12/08 03:57:34;;;;;;;11.70;8.48;;;3.00;99.90;;;;;;5029380;28;20590;-76
2023/12/08 04:00:20;;;;;;;11.82;9.18;;;2.90;99.90;;;;;;5040225;28;20560;-75
2023/12/08 04:03:06;;;;;;;10.60;7.82;;;3.00;99.90;;;;;;5037227;28;20275;-75
2023/12/08 04:05:53;;;;;;;10.82;7.60;;;3.00;99.90;;;;;;5027471;28;20272;-75
2023/12/08 04:08:39;;;;;;;9.70;8.55;;;3.00;99.90;;;;;;5031654;28;20728;-75
2023/12/08 04:11:25;;;;;;;11.95;8.43;;;3.00;99.90;;;;;;5028897;28;20291;-76
2023/12/08 04:14:10;;;;;;;10.90;9.40;;;3.10;99.90;;;;;;5029789;28;20558;-76
2023/12/08 04:16:56;;;;;;;11.85;8.50;;;3.10;99.90;;;;;;5022969;28;20720;-75
2023/12/08 04:19:42;;;;;;;15.10;9.80;;;3.10;99.90;;;;;;5020521;28;20585;-75
2023/12/08 04:22:29;;;;;;;14.02;9.30;;;3.00;99.90;;;;;;5036329;28;20213;-76
2023/12/08 04:25:14;;;;;;;10.70;8.82;;;3.00;99.90;;;;;;5029215;28;20303;-76
2023/12/08 04:28:00;;;;;;;12.73;9.05;;;3.10;99.90;;;;;;5026560;28;20205;-75
2023/12/08 04:30:45;;;;;;;12.38;9.73;;;3.00;99.90;;;;;;5027822;28;20251;-75
2023/12/08 04:33:31;;;;;;;12.43;9.48;;;3.10;99.90;;;;;;5031622;28;20213;-76
2023/12/08 04:36:16;;;;;;;10.63;8.70;;;3.00;99.90;;;;;;5030549;28;20268;-76
2023/12/08 04:39:04;;;;;;;11.30;8.57;;;3.00;99.90;;;;;;5027309;28;20238;-76
2023/12/08 04:41:49;;;;;;;12.95;9.48;;;3.10;99.90;;;;;;5029433;28;20579;-76
2023/12/08 04:44:35;;;;;;;11.77;8.77;;;3.00;99.90;;;;;;5023233;28;20581;-76
2023/12/08 04:47:20;;;;;;;9.45;8.38;;;3.10;99.90;;;;;;5029565;28;20229;-75
2023/12/08 04:50:07;;;;;;;15.32;9.45;;;3.20;99.90;;;;;;5025820;28;20204;-75
2023/12/08 04:52:52;;;;;;;10.27;8.38;;;3.20;99.90;;;;;;5028282;28;20205;-75
2023/12/08 04:55:39;;;;;;;12.55;9.70;;;3.20;99.90;;;;;;5039034;28;20205;-76
2023/12/08 04:58:25;;;;;;;12.43;10.15;;;3.20;99.90;;;;;;5035478;28;20663;-75
2023/12/08 05:01:13;;;;;;;17.38;10.60;;;3.20;99.90;;;;;;5036421;28;20671;-76
2023/12/08 05:03:59;;;;;;;14.40;9.88;;;3.10;99.90;;;;;;5030095;28;20207;-75
2023/12/08 05:06:45;;;;;;;13.02;9.40;;;3.10;99.90;;;;;;5039474;28;20744;-75
2023/12/08 05:09:30;;;;;;;14.27;9.50;;;3.20;99.90;;;;;;5041366;28;20228;-76
2023/12/08 05:12:17;;;;;;;10.90;8.50;;;3.30;99.90;;;;;;5033274;28;20259;-76
2023/12/08 05:15:04;;;;;;;14.02;9.63;;;3.30;99.90;;;;;;5025871;28;20322;-76
2023/12/08 05:17:49;;;;;;;12.05;9.63;;;3.20;99.90;;;;;;5028609;28;20229;-76
2023/12/08 05:20:35;;;;;;;18.05;9.48;;;3.20;99.90;;;;;;5033612;28;20279;-75
2023/12/08 05:23:21;;;;;;;14.52;10.65;;;3.10;99.90;;;;;;5030198;28;20201;-75
2023/12/08 05:26:07;;;;;;;16.80;12.30;;;3.00;99.90;;;;;;5029615;28;20241;-76
2023/12/08 05:28:54;;;;;;;18.90;10.45;;;3.00;99.90;;;;;;5027382;28;20284;-76
2023/12/08 05:31:39;;;;;;;12.82;9.27;;;3.00;99.90;;;;;;5034587;28;20221;-75
2023/12/08 05:34:25;;;;;;;14.23;11.10;;;3.10;99.90;;;;;;5039045;28;20251;-76
2023/12/08 05:37:11;;;;;;;12.82;10.43;;;3.00;99.90;;;;;;5034001;28;20530;-75
2023/12/08 05:39:57;;;;;;;19.77;11.43;;;3.00;99.90;;;;;;5037931;28;20288;-76
2023/12/08 05:42:42;;;;;;;17.70;11.88;;;3.00;99.90;;;;;;5027179;28;20217;-76
2023/12/08 05:45:29;;;;;;;16.33;11.30;;;3.00;99.90;;;;;;5034796;28;20208;-75
2023/12/08 05:48:15;;;;;;;15.57;11.05;;;3.10;99.90;;;;;;5035088;28;20225;-75
2023/12/08 05:51:00;;;;;;;13.20;10.13;;;3.10;99.90;;;;;;5028277;28;20198;-74
2023/12/08 05:53:46;;;;;;;12.70;9.93;;;3.10;99.90;;;;;;5025835;28;20198;-75
2023/12/08 05:56:32;;;;;;;16.42;11.60;;;3.10;99.90;;;;;;5030406;28;20225;-75
2023/12/08 05:59:17;;;;;;;14.32;11.70;;;3.10;99.90;;;;;;5028527;28;20225;-76
2023/12/08 06:02:04;;;;;;;14.18;11.25;;;3.10;99.90;;;;;;5027898;28;20601;-75
2023/12/08 06:04:50;;;;;;;15.50;12.35;;;3.10;99.90;;;;;;5022664;28;20206;-75
2023/12/08 06:07:36;;;;;;;17.08;11.23;;;3.20;99.90;;;;;;5033994;28;20239;-75
2023/12/08 06:10:23;;;;;;;16.05;11.10;;;3.10;99.90;;;;;;5027287;28;20684;-76
2023/12/08 06:13:08;;;;;;;16.33;12.70;;;3.10;99.90;;;;;;5031491;28;20691;-75
2023/12/08 06:15:54;;;;;;;18.77;12.57;;;3.10;99.90;;;;;;5027242;28;20225;-75
2023/12/08 06:18:41;;;;;;;16.70;11.63;;;3.10;99.90;;;;;;5032218;28;20732;-76
2023/12/08 06:21:27;;;;;;;14.07;11.45;;;3.10;99.90;;;;;;5027638;28;20328;-76
2023/12/08 06:24:13;;;;;;;17.73;11.15;;;3.10;99.90;;;;;;5029330;28;20673;-75
2023/12/08 06:26:58;;;;;;;16.70;11.88;;;3.10;99.90;;;;;;5029535;28;20236;-76
2023/12/08 06:29:44;;;;;;;15.90;12.10;;;2.90;99.90;;;;;;5025746;28;20225;-75
2023/12/08 06:32:29;;;;;;;17.52;13.02;;;2.90;99.90;;;;;;5031316;28;20199;-76
2023/12/08 06:35:16;;;;;;;15.98;12.43;;;2.80;99.90;;;;;;5034143;28;20206;-75
2023/12/08 06:38:04;;;;;;;16.85;13.48;;;2.80;99.90;;;;;;5027985;28;20214;-76
2023/12/08 06:40:50;;;;;;;16.40;12.43;;;2.70;99.90;;;;;;5033249;28;20218;-75
2023/12/08 06:43:35;;;;;;;19.83;13.30;;;2.80;99.90;;;;;;5031765;28;20283;-76
2023/12/08 06:46:21;;;;;;;18.52;13.40;;;2.70;99.90;;;;;;5035140;28;20221;-76
2023/12/08 06:49:07;;;;;;;19.73;14.18;;;2.70;99.90;;;;;;5036395;28;20197;-75
2023/12/08 06:51:53;;;;;;;17.80;12.90;;;2.70;99.90;;;;;;5026985;28;20208;-75
2023/12/08 06:54:39;;;;;;;17.23;13.60;;;2.80;99.90;;;;;;5038203;28;20568;-75
2023/12/08 06:57:25;;;;;;;18.73;13.23;;;2.80;99.90;;;;;;5033098;28;20272;-74
2023/12/08 07:00:13;;;;;;;16.83;12.35;;;2.80;99.90;;;;;;5044056;28;20581;-75
2023/12/08 07:02:59;;;;;;;19.02;14.10;;;2.80;99.90;;;;;;5034599;28;20210;-75
2023/12/08 07:05:45;;;;;;;20.40;14.73;;;2.80;99.90;;;;;;5041005;28;20224;-75
2023/12/08 07:08:32;;;;;;;21.00;14.93;;;2.80;99.90;;;;;;5040033;28;20204;-74
2023/12/08 07:11:17;;;;;;;18.17;12.60;;;2.80;99.90;;;;;;5036747;28;20198;-75
2023/12/08 07:14:03;;;;;;;19.88;14.15;;;2.70;99.90;;;;;;5042015;28;20205;-75
2023/12/08 07:16:48;;;;;;;19.73;14.88;;;2.70;99.90;;;;;;5026581;28;20234;-76
2023/12/08 07:19:34;;;;;;;19.77;13.95;;;2.70;99.90;;;;;;5037516;28;20736;-75
2023/12/08 07:22:20;;;;;;;20.52;14.60;;;2.70;99.90;;;;;;5045681;28;20297;-75
2023/12/08 07:25:09;;;;;;;19.63;14.13;;;2.80;99.90;;;;;;5036446;28;20206;-76
2023/12/08 07:27:55;;;;;;;19.90;14.18;;;2.80;99.90;;;;;;5032788;28;20213;-76
2023/12/08 07:30:40;;;;;;;18.85;12.85;;;2.80;99.90;;;;;;5033096;28;20249;-76
2023/12/08 07:33:26;;;;;;;22.15;14.80;;;2.80;99.90;;;;;;5033636;28;20643;-75
2023/12/08 07:36:12;;;;;;;20.27;14.00;;;2.90;99.90;;;;;;5035578;28;20236;-75
2023/12/08 07:38:58;;;;;;;18.13;13.77;;;2.90;99.90;;;;;;5043439;28;20204;-75
2023/12/08 07:41:45;;;;;;;17.00;13.77;;;3.00;99.90;;;;;;5036766;28;20210;-75
2023/12/08 07:44:30;;;;;;;18.73;13.63;;;3.20;99.90;;;;;;5035244;28;20282;-76
2023/12/08 07:47:16;;;;;;;15.70;12.38;;;3.10;99.90;;;;;;5044155;28;20221;-76
2023/12/08 07:50:02;;;;;;;17.38;13.60;;;3.20;99.90;;;;;;5031255;28;20284;-75
2023/12/08 07:52:48;;;;;;;20.73;13.85;;;3.20;99.90;;;;;;5034283;28;20301;-75
2023/12/08 07:55:33;;;;;;;17.23;13.10;;;3.20;99.90;;;;;;5037249;28;20209;-76
2023/12/08 07:58:21;;;;;;;19.38;13.82;;;3.20;99.90;;;;;;5031221;28;20210;-76
2023/12/08 08:01:06;;;;;;;18.33;13.93;;;3.20;99.90;;;;;;5027494;28;20229;-75
2023/12/08 08:03:52;;;;;;;19.52;13.90;;;3.20;99.90;;;;;;5034343;28;20619;-76
2023/12/08 08:06:38;;;;;;;19.40;13.35;;;3.20;99.90;;;;;;5032409;28;20247;-75
2023/12/08 08:09:23;;;;;;;19.20;13.77;;;3.20;99.90;;;;;;5035123;28;20272;-76
2023/12/08 08:12:10;;;;;;;19.30;13.45;;;3.20;99.90;;;;;;5035808;28;20569;-75
2023/12/08 08:14:57;;;;;;;17.15;13.23;;;3.30;99.90;;;;;;5033324;28;20276;-76
2023/12/08 08:17:43;;;;;;;17.23;12.75;;;3.30;99.90;;;;;;5029277;28;20230;-75
2023/12/08 08:20:28;;;;;;;14.63;12.35;;;3.30;99.90;;;;;;5039333;28;20699;-76
2023/12/08 08:23:14;;;;;;;16.70;12.80;;;3.30;99.90;;;;;;5027359;28;20206;-75
2023/12/08 08:26:00;;;;;;;20.35;14.55;;;3.20;99.90;;;;;;5041592;28;20322;-75
2023/12/08 08:28:45;;;;;;;20.60;14.18;;;3.20;99.90;;;;;;5037851;28;20785;-75
2023/12/08 08:31:32;;;;;;;20.35;15.40;;;3.30;99.90;;;;;;5034933;28;20335;-75
2023/12/08 08:34:18;;;;;;;21.75;15.00;;;3.30;99.90;;;;;;5039242;28;20220;-75
2023/12/08 08:37:04;;;;;;;17.73;14.32;;;3.30;99.90;;;;;;5034653;28;20240;-75
2023/12/08 08:39:49;;;;;;;19.50;14.18;;;3.40;99.90;;;;;;5033666;28;20268;-75
2023/12/08 08:42:36;;;;;;;23.20;14.10;;;3.40;99.90;;;;;;5028729;28;20212;-74
2023/12/08 08:45:22;;;;;;;21.85;15.38;;;3.50;99.90;;;;;;5039335;28;20693;-76
2023/12/08 08:48:09;;;;;;;23.48;15.65;;;3.50;99.90;;;;;;5036345;28;20197;-75
2023/12/08 08:50:54;;;;;;;25.90;15.63;;;3.50;99.90;;;;;;5038140;28;20664;-75
2023/12/08 08:53:40;;;;;;;22.10;16.52;;;3.50;99.90;;;;;;5046066;28;20703;-76
2023/12/08 08:56:26;;;;;;;20.48;15.23;;;3.50;99.90;;;;;;5034515;28;20570;-76
2023/12/08 08:59:11;;;;;;;24.85;17.55;;;3.50;99.90;;;;;;5031657;28;20256;-75
2023/12/08 09:01:57;;;;;;;24.30;18.23;;;3.50;99.90;;;;;;5028408;28;20205;-75
2023/12/08 09:04:44;;;;;;;32.20;18.90;;;3.60;99.90;;;;;;5036995;28;20280;-75
2023/12/08 09:07:29;;;;;;;25.60;17.60;;;3.50;99.90;;;;;;5033066;28;20301;-75
2023/12/08 09:10:15;;;;;;;22.85;18.10;;;3.50;99.90;;;;;;5027331;28;20202;-76
2023/12/08 09:13:01;;;;;;;30.02;19.70;;;3.50;99.90;;;;;;5036440;28;20200;-75
2023/12/08 09:15:47;;;;;;;28.42;20.02;;;3.50;99.90;;;;;;5027987;28;20736;-76
2023/12/08 09:18:32;;;;;;;25.75;18.50;;;3.50;99.90;;;;;;5040770;28;20201;-75
2023/12/08 09:21:19;;;;;;;24.33;17.83;;;3.50;99.90;;;;;;5038025;28;20226;-75
2023/12/08 09:24:05;;;;;;;27.42;18.17;;;3.60;99.90;;;;;;5031948;28;20198;-77
2023/12/08 09:26:52;;;;;;;26.50;18.38;;;3.60;99.90;;;;;;5039186;28;20241;-75
2023/12/08 09:29:38;;;;;;;24.45;17.88;;;3.60;99.90;;;;;;5032592;28;20291;-76
2023/12/08 09:32:24;;;;;;;23.40;17.08;;;3.60;99.90;;;;;;5032035;28;20221;-76
2023/12/08 09:35:09;;;;;;;28.88;19.35;;;3.60;99.90;;;;;;5027397;28;20755;-74
2023/12/08 09:37:56;;;;;;;25.88;18.63;;;3.60;99.90;;;;;;5029370;28;20718;-76
2023/12/08 09:40:44;;;;;;;28.20;19.63;;;3.70;99.90;;;;;;5024868;28;20229;-75
2023/12/08 09:43:35;;;;;;;25.17;18.52;;;3.70;99.90;;;;;;5032333;28;20208;-75
2023/12/08 09:46:23;;;;;;;22.90;16.20;;;3.70;99.90;;;;;;5033963;28;20408;-76
2023/12/08 09:49:16;;;;;;;27.70;17.73;;;3.70;99.90;;;;;;5031025;28;20202;-76
2023/12/08 09:52:02;;;;;;;25.05;19.13;;;3.60;99.90;;;;;;5025878;28;20202;-75
2023/12/08 09:54:49;;;;;;;26.05;18.88;;;3.70;99.90;;;;;;5031842;28;20205;-75
2023/12/08 09:57:35;;;;;;;28.27;19.90;;;3.70;99.90;;;;;;5023152;28;20279;-76
2023/12/08 10:00:22;;;;;;;26.65;18.50;;;3.80;99.90;;;;;;5028056;28;20230;-75
2023/12/08 10:03:07;;;;;;;24.08;17.15;;;3.70;99.90;;;;;;5035165;28;20197;-76
2023/12/08 10:05:55;;;;;;;24.75;17.95;;;3.80;99.90;;;;;;5031149;28;20222;-75
2023/12/08 10:08:40;;;;;;;25.15;18.92;;;3.80;99.90;;;;;;5031154;28;20209;-75
2023/12/08 10:11:27;;;;;;;25.75;17.85;;;3.80;99.90;;;;;;5045695;28;20208;-75
2023/12/08 10:14:15;;;;;;;26.38;18.30;;;3.80;99.90;;;;;;5033030;28;20203;-75
2023/12/08 10:17:02;;;;;;;24.70;16.75;;;3.80;99.90;;;;;;5034362;28;20221;-75
2023/12/08 10:19:49;;;;;;;22.40;16.08;;;3.90;99.90;;;;;;5045645;28;20225;-75
2023/12/08 10:22:45;;;;;;;24.25;16.92;;;3.90;99.90;;;;;;5036845;28;20243;-75
2023/12/08 10:25:31;;;;;;;23.55;15.75;;;4.00;99.90;;;;;;5039341;28;20200;-75
2023/12/08 10:28:22;;;;;;;28.80;17.40;;;3.90;99.90;;;;;;5041833;28;20209;-75
2023/12/08 10:31:09;;;;;;;28.77;20.67;;;4.00;99.90;;;;;;5036606;28;20204;-75
2023/12/08 10:33:55;;;;;;;32.45;23.35;;;4.00;99.90;;;;;;5038217;28;20207;-75
2023/12/08 10:36:41;;;;;;;30.27;21.70;;;4.00;99.90;;;;;;5045467;28;20217;-75
2023/12/08 10:39:27;;;;;;;28.10;21.35;;;4.00;99.90;;;;;;5041286;28;20287;-75
2023/12/08 10:42:13;;;;;;;32.20;21.08;;;4.10;99.90;;;;;;5033604;28;20674;-75
2023/12/08 10:45:01;;;;;;;33.67;23.60;;;4.10;99.90;;;;;;5035875;28;20277;-75
2023/12/08 10:47:49;;;;;;;33.45;22.90;;;4.20;99.90;;;;;;5035684;28;20231;-75
2023/12/08 10:50:36;;;;;;;40.35;25.15;;;4.20;99.90;;;;;;5042374;28;20209;-75
2023/12/08 10:53:22;;;;;;;53.17;30.38;;;4.10;99.90;;;;;;5035818;28;20206;-75
2023/12/08 10:56:11;;;;;;;66.88;32.55;;;4.10;99.90;;;;;;5026764;28;20224;-75
2023/12/08 10:59:03;;;;;;;54.65;29.58;;;4.20;99.90;;;;;;5030852;28;20273;-75
2023/12/08 11:01:52;;;;;;;51.90;31.98;;;4.30;99.90;;;;;;5042863;28;20224;-75
2023/12/08 11:04:41;;;;;;;50.28;30.55;;;4.30;99.90;;;;;;5042359;28;20234;-75
2023/12/08 11:07:32;;;;;;;46.45;27.02;;;4.30;99.90;;;;;;5049266;28;20306;-75
2023/12/08 11:10:18;;;;;;;40.25;27.27;;;4.40;99.90;;;;;;5044764;28;20298;-75
2023/12/08 11:13:09;;;;;;;37.63;25.40;;;4.40;99.90;;;;;;5032672;28;20709;-75
2023/12/08 11:16:12;;;;;;;38.95;25.85;;;4.40;99.90;;;;;;5028874;28;20229;-75
2023/12/08 11:19:00;;;;;;;40.80;26.30;;;4.50;99.90;;;;;;5041217;28;20209;-75
2023/12/08 11:21:46;;;;;;;32.97;22.70;;;4.50;99.90;;;;;;5041406;28;20736;-75
2023/12/08 11:24:32;;;;;;;40.83;27.05;;;4.50;99.90;;;;;;5040644;28;20659;-75
2023/12/08 11:27:28;;;;;;;35.65;24.60;;;4.50;99.90;;;;;;5037799;28;20309;-75
2023/12/08 11:30:20;;;;;;;34.63;24.17;;;4.60;99.90;;;;;;5030588;28;20716;-75
2023/12/08 11:33:12;;;;;;;36.33;21.92;;;4.60;99.90;;;;;;5033329;28;20202;-76
2023/12/08 11:36:08;;;;;;;35.72;23.67;;;4.70;99.90;;;;;;5030957;28;20229;-75
2023/12/08 11:38:55;;;;;;;34.80;22.08;;;4.70;99.90;;;;;;5037176;28;20263;-75
2023/12/08 11:41:40;;;;;;;29.13;22.33;;;4.80;99.90;;;;;;5046317;28;20221;-74
2023/12/08 11:44:26;;;;;;;28.95;22.25;;;4.80;99.90;;;;;;5033352;28;20711;-76
2023/12/08 11:47:15;;;;;;;29.35;20.55;;;4.90;99.90;;;;;;5033021;28;20273;-77
2023/12/08 11:50:00;;;;;;;30.65;20.02;;;4.90;99.90;;;;;;5043991;28;20208;-74
2023/12/08 11:52:47;;;;;;;33.25;22.23;;;5.00;99.90;;;;;;5042404;28;20279;-74
2023/12/08 11:55:33;;;;;;;35.47;21.55;;;5.00;99.90;;;;;;5039876;28;20212;-74
2023/12/08 11:58:19;;;;;;;33.75;24.58;;;5.00;99.90;;;;;;5049098;28;20299;-74
2023/12/08 12:01:10;;;;;;;33.47;24.58;;;5.10;99.90;;;;;;5031561;28;20216;-73
2023/12/08 12:03:56;;;;;;;35.35;25.80;;;5.10;99.90;;;;;;5036339;28;20713;-76
2023/12/08 12:06:44;;;;;;;74.72;40.38;;;5.10;99.90;;;;;;5049481;28;20228;-75
2023/12/08 12:09:34;;;;;;;48.85;31.80;;;5.20;99.90;;;;;;5048821;28;20209;-76
2023/12/08 12:12:30;;;;;;;41.45;27.17;;;5.10;99.90;;;;;;5042481;28;20602;-75
2023/12/08 12:15:19;;;;;;;32.97;24.77;;;5.20;99.90;;;;;;5042194;28;20201;-75
2023/12/08 12:18:05;;;;;;;40.00;26.17;;;5.20;99.90;;;;;;5031775;28;20310;-75
2023/12/08 12:20:51;;;;;;;37.95;26.30;;;5.30;99.90;;;;;;5030730;28;20216;-74
2023/12/08 12:23:38;;;;;;;35.22;24.50;;;5.20;99.90;;;;;;5038508;28;20225;-75
2023/12/08 12:26:25;;;;;;;31.55;23.23;;;5.20;99.90;;;;;;5036547;28;20246;-75
2023/12/08 12:29:11;;;;;;;30.45;23.25;;;5.30;99.90;;;;;;5041296;28;20249;-75
2023/12/08 12:31:56;;;;;;;39.50;25.38;;;5.30;99.90;;;;;;5037356;28;20572;-75
2023/12/08 12:34:42;;;;;;;33.17;23.30;;;5.30;99.90;;;;;;5040585;28;20204;-75
2023/12/08 12:37:28;;;;;;;39.42;26.25;;;5.30;99.90;;;;;;5040528;28;20222;-75
2023/12/08 12:40:14;;;;;;;42.78;29.52;;;5.30;99.90;;;;;;5034068;28;20210;-77
2023/12/08 12:43:01;;;;;;;48.88;30.48;;;5.30;99.90;;;;;;5036365;28;20288;-76
2023/12/08 12:45:49;;;;;;;32.03;24.20;;;5.40;99.90;;;;;;5033968;28;20233;-74
2023/12/08 12:48:34;;;;;;;40.40;24.67;;;5.40;99.90;;;;;;5043767;28;20725;-75
2023/12/08 12:51:33;;;;;;;32.63;23.88;;;5.40;99.90;;;;;;5036790;28;20276;-75
2023/12/08 12:54:33;;;;;;;30.90;22.10;;;5.40;99.90;;;;;;5037923;28;20234;-74
2023/12/08 12:57:19;;;;;;;29.63;21.63;;;5.40;99.90;;;;;;5042987;28;20225;-75
2023/12/08 13:00:09;;;;;;;29.50;21.42;;;5.50;99.90;;;;;;5033409;28;20254;-76
2023/12/08 13:02:55;;;;;;;21.02;17.30;;;5.60;99.90;;;;;;5030441;28;20218;-75
2023/12/08 13:05:47;;;;;;;25.73;19.92;;;5.60;99.90;;;;;;5030649;28;20252;-75
2023/12/08 13:08:42;;;;;;;24.33;18.95;;;5.60;99.90;;;;;;5038699;28;20308;-76
2023/12/08 13:11:28;;;;;;;25.50;18.15;;;5.70;99.90;;;;;;5029935;28;20206;-75
2023/12/08 13:14:14;;;;;;;27.33;19.92;;;5.70;99.90;;;;;;5027654;28;20202;-76
2023/12/08 13:17:01;;;;;;;21.40;17.48;;;5.70;99.90;;;;;;5035282;28;20732;-75
2023/12/08 13:19:48;;;;;;;28.02;18.98;;;5.70;99.90;;;;;;5025526;28;20309;-75
2023/12/08 13:22:33;;;;;;;27.20;18.05;;;5.70;99.90;;;;;;5027450;28;20245;-76
2023/12/08 13:25:19;;;;;;;27.17;17.92;;;5.70;99.90;;;;;;5040371;28;20218;-74
2023/12/08 13:28:04;;;;;;;22.27;15.40;;;5.80;99.90;;;;;;5036192;28;20205;-75
2023/12/08 13:30:50;;;;;;;20.98;15.63;;;5.80;99.90;;;;;;5027190;28;20570;-76
2023/12/08 13:33:37;;;;;;;26.13;17.80;;;5.80;99.90;;;;;;5037143;28;20215;-75
2023/12/08 13:36:22;;;;;;;22.60;16.23;;;5.90;99.90;;;;;;5030169;28;20241;-76
2023/12/08 13:39:10;;;;;;;26.95;18.15;;;5.80;99.90;;;;;;5035700;28;20339;-76
2023/12/08 13:41:55;;;;;;;24.10;18.13;;;5.80;99.90;;;;;;5029573;28;20209;-74
2023/12/08 13:44:41;;;;;;;24.90;17.92;;;5.80;99.90;;;;;;5022782;28;20209;-75
2023/12/08 13:47:26;;;;;;;22.77;17.35;;;5.80;99.90;;;;;;5035830;28;20240;-76
2023/12/08 13:50:14;;;;;;;25.80;18.65;;;5.80;99.90;;;;;;5025421;28;20201;-75
2023/12/08 13:52:59;;;;;;;22.92;17.58;;;5.90;99.90;;;;;;5029902;28;20196;-73
2023/12/08 13:55:45;;;;;;;28.40;19.42;;;5.90;99.90;;;;;;5023509;28;20661;-76
2023/12/08 13:58:30;;;;;;;25.08;18.90;;;5.90;99.90;;;;;;5035765;28;20568;-76
2023/12/08 14:01:16;;;;;;;30.13;20.60;;;5.90;99.90;;;;;;5025838;28;20337;-76
2023/12/08 14:04:02;;;;;;;26.70;19.70;;;5.90;99.90;;;;;;5031971;28;20200;-76
2023/12/08 14:06:49;;;;;;;28.70;18.75;;;5.90;99.90;;;;;;5033248;28;20609;-76
2023/12/08 14:09:35;;;;;;;25.40;19.05;;;5.90;99.90;;;;;;5033484;28;20201;-76
2023/12/08 14:12:21;;;;;;;25.77;19.48;;;6.00;99.90;;;;;;5032217;28;20199;-75
2023/12/08 14:15:08;;;;;;;26.45;18.90;;;6.00;99.90;;;;;;5028348;28;20217;-76
2023/12/08 14:17:53;;;;;;;27.20;19.80;;;6.10;99.90;;;;;;5033271;28;20209;-76